createdAt,value
2019-01-24T00:00:42.773Z,33.17
2019-01-24T00:03:11.786Z,31.20
2019-01-24T00:05:40.697Z,30.67
2019-01-24T00:08:09.675Z,29.37
2019-01-24T00:10:38.905Z,31.63
2019-01-24T00:13:07.910Z,32.07
2019-01-24T00:15:37.192Z,29.87
2019-01-24T00:18:06.196Z,28.43
2019-01-24T00:20:35.446Z,28.87
2019-01-24T00:23:04.809Z,30.23
2019-01-24T00:25:34.149Z,28.87
2019-01-24T00:28:03.629Z,29.23
2019-01-24T00:30:32.986Z,27.23
2019-01-24T00:33:02.320Z,29.13
2019-01-24T00:35:31.321Z,30.47
2019-01-24T00:38:00.260Z,29.03
2019-01-24T00:40:29.202Z,30.50
2019-01-24T00:42:58.429Z,28.10
2019-01-24T00:45:27.798Z,25.27
2019-01-24T00:47:57.137Z,27.40
2019-01-24T00:50:26.464Z,27.53
2019-01-24T00:52:55.848Z,27.43
2019-01-24T00:55:25.177Z,27.27
2019-01-24T00:57:54.519Z,25.37
2019-01-24T01:00:25.617Z,27.10
2019-01-24T01:02:54.635Z,24.50
2019-01-24T01:05:23.943Z,24.57
2019-01-24T01:07:53.314Z,26.10
2019-01-24T01:10:22.654Z,24.23
2019-01-24T01:12:51.989Z,26.10
2019-01-24T01:15:21.426Z,24.17
2019-01-24T01:17:50.766Z,24.50
2019-01-24T01:20:21.649Z,25.13
2019-01-24T01:22:51.088Z,24.33
2019-01-24T01:25:20.174Z,24.43
2019-01-24T01:27:49.158Z,25.43
2019-01-24T01:30:20.577Z,25.83
2019-01-24T01:32:49.717Z,25.03
2019-01-24T01:35:19.033Z,25.27
2019-01-24T01:37:48.066Z,23.50
2019-01-24T01:40:17.751Z,24.13
2019-01-24T01:42:46.831Z,24.63
2019-01-24T01:45:17.314Z,24.83
2019-01-24T01:47:46.565Z,24.27
2019-01-24T01:50:22.584Z,24.87
2019-01-24T01:52:51.497Z,24.37
2019-01-24T01:55:20.821Z,22.40
2019-01-24T01:57:49.856Z,23.67
2019-01-24T02:00:19.638Z,22.80
2019-01-24T02:02:48.626Z,23.07
2019-01-24T02:05:17.637Z,24.27
2019-01-24T02:07:47.049Z,23.70
2019-01-24T02:10:18.637Z,22.87
2019-01-24T02:12:48.174Z,21.63
2019-01-24T02:15:18.350Z,23.87
2019-01-24T02:17:47.853Z,23.00
2019-01-24T02:20:21.790Z,23.60
2019-01-24T02:22:50.868Z,23.07
2019-01-24T02:25:20.199Z,22.83
2019-01-24T02:27:49.562Z,22.60
2019-01-24T02:30:21.723Z,21.97
2019-01-24T02:32:51.298Z,21.57
2019-01-24T02:35:20.662Z,20.80
2019-01-24T02:37:50.070Z,22.73
2019-01-24T02:40:19.544Z,22.80
2019-01-24T02:42:48.982Z,22.63
2019-01-24T02:45:20.926Z,20.77
2019-01-24T02:47:50.261Z,22.07
2019-01-24T02:50:21.369Z,23.80
2019-01-24T02:52:50.712Z,22.60
2019-01-24T02:55:20.321Z,22.00
2019-01-24T02:57:49.685Z,22.50
2019-01-24T03:00:20.234Z,18.87
2019-01-24T03:02:49.152Z,20.67
2019-01-24T03:05:21.520Z,22.47
2019-01-24T03:07:51.170Z,23.27
2019-01-24T03:10:20.561Z,24.07
2019-01-24T03:12:50.434Z,25.30
2019-01-24T03:15:21.562Z,21.97
2019-01-24T03:17:50.961Z,21.73
2019-01-24T03:20:20.597Z,17.23
2019-01-24T03:22:50.074Z,22.20
2019-01-24T03:25:19.656Z,20.93
2019-01-24T03:27:49.009Z,22.40
2019-01-24T03:30:20.408Z,21.53
2019-01-24T03:32:49.883Z,22.83
2019-01-24T03:35:21.920Z,21.93
2019-01-24T03:37:51.340Z,22.87
2019-01-24T03:40:20.803Z,24.60
2019-01-24T03:42:50.246Z,23.90
2019-01-24T03:45:19.651Z,23.73
2019-01-24T03:47:49.054Z,21.70
2019-01-24T03:50:20.165Z,21.73
2019-01-24T03:52:50.247Z,20.87
2019-01-24T03:55:20.617Z,20.83
2019-01-24T03:57:50.118Z,21.43
2019-01-24T04:00:23.848Z,21.73
2019-01-24T04:02:53.254Z,19.47
2019-01-24T04:05:22.906Z,21.97
2019-01-24T04:07:52.387Z,20.67
2019-01-24T04:10:22.762Z,21.33
2019-01-24T04:12:52.131Z,20.67
2019-01-24T04:15:23.608Z,22.40
2019-01-24T04:17:53.016Z,21.33
2019-01-24T04:20:22.465Z,20.70
2019-01-24T04:22:51.868Z,22.93
2019-01-24T04:25:21.216Z,19.93
2019-01-24T04:27:50.596Z,21.67
2019-01-24T04:30:21.466Z,20.93
2019-01-24T04:32:50.884Z,19.83
2019-01-24T04:35:20.435Z,19.97
2019-01-24T04:37:49.939Z,19.10
2019-01-24T04:40:20.222Z,20.57
2019-01-24T04:42:49.599Z,20.27
2019-01-24T04:45:19.173Z,20.77
2019-01-24T04:47:48.958Z,21.03
2019-01-24T04:50:19.173Z,20.13
2019-01-24T04:52:48.650Z,20.80
2019-01-24T04:55:19.234Z,20.50
2019-01-24T04:57:48.826Z,19.83
2019-01-24T05:00:20.538Z,21.03
2019-01-24T05:02:49.986Z,21.13
2019-01-24T05:05:23.248Z,20.37
2019-01-24T05:07:50.530Z,18.93
2019-01-24T05:10:19.874Z,20.43
2019-01-24T05:12:49.246Z,20.10
2019-01-24T05:15:19.646Z,16.13
2019-01-24T05:17:49.055Z,18.43
2019-01-24T05:20:18.454Z,20.07
2019-01-24T05:22:47.861Z,20.00
2019-01-24T05:25:17.624Z,20.13
2019-01-24T05:27:47.106Z,21.83
2019-01-24T05:30:21.811Z,20.33
2019-01-24T05:32:51.143Z,21.93
2019-01-24T05:35:20.659Z,21.30
2019-01-24T05:37:50.021Z,21.67
2019-01-24T05:40:19.368Z,21.53
2019-01-24T05:42:48.728Z,20.80
2019-01-24T05:45:18.175Z,18.60
2019-01-24T05:47:47.562Z,20.50
2019-01-24T05:50:16.920Z,21.30
2019-01-24T05:52:46.270Z,22.30
2019-01-24T05:55:15.681Z,21.13
2019-01-24T05:57:45.058Z,23.03
2019-01-24T06:00:18.837Z,23.93
2019-01-24T06:02:48.177Z,21.90
2019-01-24T06:05:17.690Z,21.60
2019-01-24T06:07:47.028Z,20.77
2019-01-24T06:10:17.805Z,20.17
2019-01-24T06:12:52.108Z,21.50
2019-01-24T06:15:21.441Z,21.07
2019-01-24T06:17:50.782Z,23.53
2019-01-24T06:20:19.815Z,20.83
2019-01-24T06:22:49.058Z,21.17
2019-01-24T06:25:18.394Z,20.60
2019-01-24T06:27:47.772Z,22.63
2019-01-24T06:30:19.037Z,21.93
2019-01-24T06:32:48.382Z,23.00
2019-01-24T06:35:17.745Z,20.77
2019-01-24T06:37:47.350Z,20.43
2019-01-24T06:40:16.753Z,22.90
2019-01-24T06:42:46.118Z,22.77
2019-01-24T06:45:22.615Z,23.10
2019-01-24T06:47:51.973Z,20.20
2019-01-24T06:50:21.321Z,22.00
2019-01-24T06:52:50.722Z,21.20
2019-01-24T06:55:27.155Z,23.07
2019-01-24T06:57:56.620Z,22.90
2019-01-24T07:00:26.025Z,21.87
2019-01-24T07:02:55.437Z,21.53
2019-01-24T07:05:24.817Z,23.60
2019-01-24T07:07:54.149Z,21.47
2019-01-24T07:10:24.461Z,21.77
2019-01-24T07:12:53.801Z,27.82
2019-01-24T07:15:23.881Z,22.83
2019-01-24T07:17:53.255Z,21.70
2019-01-24T07:20:22.597Z,21.20
2019-01-24T07:22:51.937Z,20.57
2019-01-24T07:25:23.637Z,24.20
2019-01-24T07:27:52.985Z,22.83
2019-01-24T07:30:22.662Z,22.33
2019-01-24T07:32:52.138Z,23.43
2019-01-24T07:35:21.645Z,23.10
2019-01-24T07:37:50.985Z,24.10
2019-01-24T07:40:20.833Z,23.87
2019-01-24T07:42:50.441Z,22.63
2019-01-24T07:45:34.354Z,24.20
2019-01-24T07:48:03.901Z,22.73
2019-01-24T07:50:33.242Z,23.30
2019-01-24T07:53:02.609Z,22.43
2019-01-24T07:55:31.950Z,22.00
2019-01-24T07:58:01.294Z,22.20
2019-01-24T08:00:30.988Z,24.10
2019-01-24T08:03:00.338Z,23.63
2019-01-24T08:05:30.921Z,24.00
2019-01-24T08:08:00.299Z,22.67
2019-01-24T08:10:29.624Z,23.07
2019-01-24T08:12:58.973Z,23.80
2019-01-24T08:15:29.202Z,23.83
2019-01-24T08:17:58.685Z,24.67
2019-01-24T08:20:28.565Z,25.40
2019-01-24T08:22:57.927Z,24.17
2019-01-24T08:25:27.329Z,22.53
2019-01-24T08:28:16.053Z,25.07
2019-01-24T08:30:45.382Z,23.17
2019-01-24T08:33:14.785Z,25.40
2019-01-24T08:35:43.813Z,24.13
2019-01-24T08:38:13.070Z,23.47
2019-01-24T08:40:42.412Z,23.27
2019-01-24T08:43:11.473Z,24.63
2019-01-24T08:45:40.717Z,23.73
2019-01-24T08:48:10.070Z,23.57
2019-01-24T08:50:39.443Z,23.13
2019-01-24T08:53:08.778Z,25.00
2019-01-24T08:55:38.258Z,25.67
2019-01-24T08:58:07.768Z,25.17
2019-01-24T09:00:37.108Z,23.47
2019-01-24T09:03:13.205Z,23.70
2019-01-24T09:05:42.212Z,24.37
2019-01-24T09:08:11.634Z,24.23
2019-01-24T09:10:41.258Z,23.20
2019-01-24T09:13:11.966Z,24.63
2019-01-24T09:16:01.569Z,23.07
2019-01-24T09:18:30.489Z,17.03
2019-01-24T09:20:59.742Z,24.63
2019-01-24T09:23:29.109Z,24.33
2019-01-24T09:25:58.450Z,25.37
2019-01-24T09:28:27.549Z,26.20
2019-01-24T09:30:56.493Z,24.23
2019-01-24T09:33:25.745Z,24.17
2019-01-24T09:35:55.137Z,26.30
2019-01-24T09:38:24.174Z,24.33
2019-01-24T09:40:53.087Z,25.10
2019-01-24T09:43:22.001Z,26.20
2019-01-24T09:45:51.283Z,29.60
2019-01-24T09:48:20.613Z,26.23
2019-01-24T09:50:49.619Z,26.53
2019-01-24T09:53:18.889Z,26.53
2019-01-24T09:55:47.901Z,24.87
2019-01-24T09:58:17.143Z,25.83
2019-01-24T10:00:46.565Z,23.10
2019-01-24T10:03:15.567Z,24.97
2019-01-24T10:05:44.485Z,24.40
2019-01-24T10:08:13.418Z,22.47
2019-01-24T10:10:42.421Z,22.43
2019-01-24T10:13:11.337Z,24.83
2019-01-24T10:15:40.272Z,23.30
2019-01-24T10:18:09.195Z,22.30
2019-01-24T10:20:38.441Z,22.87
2019-01-24T10:23:07.473Z,21.03
2019-01-24T10:25:37.057Z,20.30
2019-01-24T10:28:06.165Z,21.83
2019-01-24T10:30:42.171Z,22.30
2019-01-24T10:33:06.337Z,23.53
2019-01-24T10:35:35.703Z,21.70
2019-01-24T10:38:05.518Z,22.27
2019-01-24T10:40:34.930Z,23.27
2019-01-24T10:43:04.102Z,23.13
2019-01-24T10:45:33.385Z,22.27
2019-01-24T10:48:02.449Z,23.90
2019-01-24T10:50:31.365Z,23.93
2019-01-24T10:53:00.636Z,22.80
2019-01-24T10:55:29.709Z,21.97
2019-01-24T10:58:00.289Z,21.10
2019-01-24T11:00:32.574Z,22.07
2019-01-24T11:03:02.339Z,20.57
2019-01-24T11:05:31.416Z,20.87
2019-01-24T11:08:00.702Z,24.67
2019-01-24T11:10:29.701Z,21.87
2019-01-24T11:12:58.621Z,22.40
2019-01-24T11:15:27.570Z,24.13
2019-01-24T11:17:56.809Z,23.13
2019-01-24T11:20:25.821Z,25.17
2019-01-24T11:22:55.104Z,36.33
2019-01-24T11:25:24.993Z,32.43
2019-01-24T11:27:53.906Z,26.90
2019-01-24T11:30:25.805Z,32.53
2019-01-24T11:32:55.673Z,29.90
2019-01-24T11:35:26.505Z,36.83
2019-01-24T11:37:55.793Z,25.53
2019-01-24T11:40:25.295Z,24.83
2019-01-24T11:42:54.711Z,21.90
2019-01-24T11:45:26.718Z,22.50
2019-01-24T11:47:56.061Z,21.00
2019-01-24T11:50:25.174Z,22.33
2019-01-24T11:52:54.105Z,24.13
2019-01-24T11:55:23.353Z,22.33
2019-01-24T11:57:52.684Z,21.00
2019-01-24T12:00:23.652Z,19.10
2019-01-24T12:02:52.993Z,21.43
2019-01-24T12:05:21.995Z,22.53
2019-01-24T12:07:51.285Z,35.63
2019-01-24T12:10:23.053Z,26.43
2019-01-24T12:12:52.061Z,32.40
2019-01-24T12:15:23.773Z,36.77
2019-01-24T12:17:53.176Z,29.20
2019-01-24T12:20:24.659Z,25.87
2019-01-24T12:22:54.017Z,21.90
2019-01-24T12:25:23.700Z,23.03
2019-01-24T12:27:53.056Z,22.77
2019-01-24T12:30:24.881Z,24.80
2019-01-24T12:32:54.281Z,24.50
2019-01-24T12:35:23.642Z,23.60
2019-01-24T12:37:52.997Z,24.23
2019-01-24T12:40:22.438Z,23.20
2019-01-24T12:42:51.743Z,23.73
2019-01-24T12:45:31.969Z,23.57
2019-01-24T12:48:01.309Z,22.47
2019-01-24T12:50:30.650Z,22.93
2019-01-24T12:52:59.713Z,23.83
2019-01-24T12:55:28.949Z,23.20
2019-01-24T12:57:58.288Z,22.60
2019-01-24T13:00:32.802Z,23.63
2019-01-24T13:03:01.823Z,23.07
2019-01-24T13:05:31.073Z,23.50
2019-01-24T13:08:00.444Z,21.57
2019-01-24T13:10:29.917Z,22.33
2019-01-24T13:12:59.249Z,24.03
2019-01-24T13:15:29.461Z,23.73
2019-01-24T13:17:58.785Z,22.80
2019-01-24T13:20:48.533Z,23.07
2019-01-24T13:23:17.930Z,22.23
2019-01-24T13:25:47.270Z,21.73
2019-01-24T13:28:16.640Z,22.70
2019-01-24T13:30:45.976Z,22.53
2019-01-24T13:33:15.308Z,22.90
2019-01-24T13:35:44.674Z,22.85
2019-01-24T13:38:14.009Z,25.97
2019-01-24T13:40:43.363Z,46.50
2019-01-24T13:43:12.733Z,49.90
2019-01-24T13:45:42.156Z,32.67
2019-01-24T13:48:11.497Z,30.17
2019-01-24T13:51:00.201Z,29.73
2019-01-24T13:53:29.538Z,23.57
2019-01-24T13:55:58.878Z,23.37
2019-01-24T13:58:28.241Z,25.27
2019-01-24T14:00:57.581Z,26.90
2019-01-24T14:03:27.090Z,24.40
2019-01-24T14:05:57.033Z,23.07
2019-01-24T14:08:25.953Z,24.13
2019-01-24T14:10:55.201Z,23.83
2019-01-24T14:13:43.903Z,23.27
2019-01-24T14:16:25.459Z,22.43
2019-01-24T14:18:55.006Z,21.97
2019-01-24T14:21:24.351Z,21.60
2019-01-24T14:23:53.697Z,22.00
2019-01-24T14:26:22.729Z,20.90
2019-01-24T14:28:51.681Z,26.30
2019-01-24T14:31:20.925Z,32.47
2019-01-24T14:33:50.298Z,40.57
2019-01-24T14:36:25.255Z,44.00
2019-01-24T14:38:50.392Z,34.90
2019-01-24T14:41:19.673Z,42.60
2019-01-24T14:43:49.014Z,23.87
2019-01-24T14:46:18.018Z,27.40
2019-01-24T14:48:47.296Z,28.63
2019-01-24T14:51:16.643Z,50.40
2019-01-24T14:53:45.641Z,24.20
2019-01-24T14:56:14.914Z,22.03
2019-01-24T14:58:43.913Z,20.97
2019-01-24T15:01:13.161Z,20.63
2019-01-24T15:03:42.203Z,19.13
2019-01-24T15:06:11.449Z,20.77
2019-01-24T15:08:40.854Z,21.13
2019-01-24T15:11:09.886Z,19.67
2019-01-24T15:13:38.798Z,20.23
2019-01-24T15:16:07.887Z,19.77
2019-01-24T15:18:37.238Z,20.47
2019-01-24T15:21:06.314Z,19.30
2019-01-24T15:23:35.557Z,18.83
2019-01-24T15:26:05.157Z,19.57
2019-01-24T15:28:34.498Z,19.50
2019-01-24T15:31:03.693Z,20.20
2019-01-24T15:33:32.650Z,20.23
2019-01-24T15:36:01.562Z,19.87
2019-01-24T15:38:30.469Z,21.13
2019-01-24T15:40:59.422Z,20.57
2019-01-24T15:43:28.675Z,19.20
2019-01-24T15:45:57.674Z,19.50
2019-01-24T15:48:45.966Z,19.47
2019-01-24T15:51:15.219Z,20.47
2019-01-24T15:53:44.561Z,20.03
2019-01-24T15:56:13.593Z,19.40
2019-01-24T15:58:42.506Z,20.97
2019-01-24T16:01:11.427Z,19.13
2019-01-24T16:03:40.373Z,20.93
2019-01-24T16:06:09.286Z,18.73
2019-01-24T16:08:38.210Z,19.73
2019-01-24T16:11:07.155Z,23.30
2019-01-24T16:13:36.070Z,19.37
2019-01-24T16:16:05.971Z,17.87
2019-01-24T16:18:35.341Z,17.30
2019-01-24T16:21:04.409Z,17.53
2019-01-24T16:23:33.356Z,17.87
2019-01-24T16:26:02.646Z,19.27
2019-01-24T16:28:31.643Z,20.47
2019-01-24T16:31:00.895Z,19.53
2019-01-24T16:33:30.266Z,18.17
2019-01-24T16:35:59.606Z,18.10
2019-01-24T16:38:28.951Z,18.33
2019-01-24T16:40:59.305Z,19.00
2019-01-24T16:43:28.826Z,20.40
2019-01-24T16:45:58.165Z,19.33
2019-01-24T16:48:27.552Z,20.33
2019-01-24T16:50:56.881Z,19.73
2019-01-24T16:53:26.212Z,20.53
2019-01-24T16:55:55.583Z,20.00
2019-01-24T16:58:24.916Z,18.33
2019-01-24T17:00:54.394Z,19.50
2019-01-24T17:03:28.734Z,18.77
2019-01-24T17:05:58.071Z,20.20
2019-01-24T17:08:27.410Z,24.73
2019-01-24T17:10:56.778Z,22.70
2019-01-24T17:13:26.113Z,22.60
2019-01-24T17:15:55.450Z,23.20
2019-01-24T17:18:24.817Z,20.57
2019-01-24T17:20:54.226Z,20.83
2019-01-24T17:23:23.612Z,22.43
2019-01-24T17:25:52.965Z,21.13
2019-01-24T17:28:22.297Z,21.53
2019-01-24T17:30:51.638Z,21.63
2019-01-24T17:33:21.009Z,21.57
2019-01-24T17:35:50.345Z,24.30
2019-01-24T17:38:23.706Z,24.43
2019-01-24T17:40:50.738Z,31.97
2019-01-24T17:43:20.077Z,25.07
2019-01-24T17:45:49.417Z,23.37
2019-01-24T17:48:18.786Z,21.40
2019-01-24T17:50:48.114Z,21.57
2019-01-24T17:53:17.449Z,23.70
2019-01-24T17:55:46.818Z,22.03
2019-01-24T17:58:16.162Z,22.37
2019-01-24T18:00:47.146Z,21.17
2019-01-24T18:03:16.522Z,19.47
2019-01-24T18:05:46.025Z,19.37
2019-01-24T18:08:15.360Z,19.87
2019-01-24T18:10:44.725Z,21.07
2019-01-24T18:13:14.136Z,20.20
2019-01-24T18:15:43.471Z,23.57
2019-01-24T18:18:13.585Z,21.90
2019-01-24T18:20:42.913Z,21.23
2019-01-24T18:23:12.643Z,21.93
2019-01-24T18:25:42.059Z,22.30
2019-01-24T18:28:11.857Z,21.80
2019-01-24T18:30:41.261Z,19.97
2019-01-24T18:33:30.990Z,20.20
2019-01-24T18:36:00.382Z,18.77
2019-01-24T18:38:29.785Z,19.83
2019-01-24T18:40:59.222Z,20.10
2019-01-24T18:43:28.626Z,19.47
2019-01-24T18:45:57.959Z,18.50
2019-01-24T18:48:27.316Z,19.73
2019-01-24T18:50:56.657Z,19.90
2019-01-24T18:53:26.008Z,19.53
2019-01-24T18:55:55.442Z,20.93
2019-01-24T18:58:24.777Z,19.90
2019-01-24T19:00:54.127Z,20.73
2019-01-24T19:03:23.494Z,20.97
2019-01-24T19:05:52.828Z,19.53
2019-01-24T19:08:22.165Z,21.27
2019-01-24T19:10:51.529Z,19.93
2019-01-24T19:13:20.874Z,20.00
2019-01-24T19:15:50.289Z,20.40
2019-01-24T19:18:19.734Z,19.03
2019-01-24T19:20:49.197Z,20.93
2019-01-24T19:23:18.534Z,20.63
2019-01-24T19:25:48.023Z,19.83
2019-01-24T19:28:17.693Z,19.53
2019-01-24T19:30:47.450Z,19.67
2019-01-24T19:33:17.286Z,18.13
2019-01-24T19:35:47.191Z,19.40
2019-01-24T19:38:16.965Z,19.83
2019-01-24T19:40:46.826Z,18.30
2019-01-24T19:43:16.472Z,19.23
2019-01-24T19:45:46.008Z,19.37
2019-01-24T19:48:15.428Z,21.17
2019-01-24T19:50:44.758Z,20.40
2019-01-24T19:53:14.102Z,20.23
2019-01-24T19:55:43.466Z,21.63
2019-01-24T19:58:12.865Z,20.60
2019-01-24T20:00:42.201Z,21.10
2019-01-24T20:03:11.575Z,20.53
2019-01-24T20:05:40.914Z,22.17
2019-01-24T20:08:10.242Z,21.13
2019-01-24T20:10:39.613Z,21.70
2019-01-24T20:13:08.947Z,21.87
2019-01-24T20:15:38.281Z,29.80
2019-01-24T20:18:07.852Z,22.53
2019-01-24T20:20:37.656Z,24.47
2019-01-24T20:23:07.706Z,24.70
2019-01-24T20:25:37.077Z,24.37
2019-01-24T20:28:06.483Z,22.57
2019-01-24T20:30:35.949Z,21.53
2019-01-24T20:33:05.697Z,21.53
2019-01-24T20:35:41.245Z,20.07
2019-01-24T20:38:11.546Z,20.47
2019-01-24T20:40:40.949Z,21.07
2019-01-24T20:43:12.127Z,21.33
2019-01-24T20:45:41.487Z,21.33
2019-01-24T20:48:10.822Z,21.27
2019-01-24T20:50:40.221Z,21.23
2019-01-24T20:53:09.598Z,22.63
2019-01-24T20:55:38.935Z,21.40
2019-01-24T20:58:08.342Z,21.77
2019-01-24T21:00:37.783Z,19.00
2019-01-24T21:03:07.178Z,21.47
2019-01-24T21:05:36.517Z,18.57
2019-01-24T21:08:06.230Z,18.10
2019-01-24T21:10:35.561Z,18.93
2019-01-24T21:13:05.539Z,19.87
2019-01-24T21:15:34.907Z,21.80
2019-01-24T21:18:04.496Z,20.53
2019-01-24T21:20:33.899Z,23.17
2019-01-24T21:23:03.276Z,23.43
2019-01-24T21:25:32.679Z,20.57
2019-01-24T21:28:02.013Z,22.90
2019-01-24T21:30:36.013Z,20.03
2019-01-24T21:33:06.700Z,20.23
2019-01-24T21:35:36.032Z,20.13
2019-01-24T21:38:06.440Z,20.87
2019-01-24T21:40:35.774Z,20.13
2019-01-24T21:43:05.355Z,20.37
2019-01-24T21:45:36.868Z,20.30
2019-01-24T21:48:07.553Z,21.53
2019-01-24T21:50:36.906Z,20.77
2019-01-24T21:53:06.676Z,23.07
2019-01-24T21:55:36.186Z,20.47
2019-01-24T21:58:06.461Z,21.13
2019-01-24T22:00:35.966Z,21.03
2019-01-24T22:03:05.705Z,21.43
2019-01-24T22:05:35.155Z,20.17
2019-01-24T22:08:04.890Z,19.87
2019-01-24T22:10:34.223Z,21.30
2019-01-24T22:13:03.731Z,21.33
2019-01-24T22:15:33.097Z,20.70
2019-01-24T22:18:02.433Z,20.93
2019-01-24T22:20:31.768Z,22.73
2019-01-24T22:23:01.138Z,20.73
2019-01-24T22:25:32.618Z,21.23
2019-01-24T22:28:01.950Z,22.23
2019-01-24T22:30:43.858Z,20.03
2019-01-24T22:33:13.267Z,19.97
2019-01-24T22:35:42.607Z,17.80
2019-01-24T22:38:12.033Z,16.87
2019-01-24T22:40:41.373Z,16.40
2019-01-24T22:43:10.705Z,16.87
2019-01-24T22:45:40.144Z,15.83
2019-01-24T22:48:09.476Z,16.13
2019-01-24T22:50:38.816Z,15.70
2019-01-24T22:53:08.173Z,17.87
2019-01-24T22:55:37.509Z,16.27
2019-01-24T22:58:07.592Z,16.97
2019-01-24T23:00:47.269Z,16.80
2019-01-24T23:03:22.901Z,18.17
2019-01-24T23:05:52.441Z,18.53
2019-01-24T23:08:21.877Z,18.70
2019-01-24T23:10:51.243Z,16.50
2019-01-24T23:13:20.637Z,14.87
2019-01-24T23:15:50.001Z,16.43
2019-01-24T23:18:19.342Z,15.70
2019-01-24T23:20:48.669Z,16.57
2019-01-24T23:23:18.029Z,16.30
2019-01-24T23:25:47.366Z,16.20
2019-01-24T23:28:16.699Z,16.47
2019-01-24T23:30:46.067Z,16.57
2019-01-24T23:33:15.394Z,16.37
2019-01-24T23:35:44.801Z,16.40
2019-01-24T23:38:14.166Z,17.40
2019-01-24T23:40:43.497Z,18.13
2019-01-24T23:43:12.840Z,17.50
2019-01-24T23:45:42.232Z,18.03
2019-01-24T23:48:11.605Z,16.77
2019-01-24T23:50:40.941Z,17.33
2019-01-24T23:53:10.310Z,16.93
2019-01-24T23:55:39.643Z,16.77
2019-01-24T23:58:08.973Z,17.63
